メインページ
METAR-TAF:

METAR-TAF

空港 :

山口宇部空港

宇部, 日本

緯度: 33-57N, 経度: 131-15E, 海抜: 5m

現時点の気象観測

当レポートは21分前の07:00(UTC)に作成
の風 16kt
気温 28°C
湿度 74%
気圧 1006 hPa
視程10km以上
高度3000ftの雲はほとんどない
高度4000ftの千切れ雲あり
千切れ雲あり

METAR: RJDC 200700Z 10016KT 9999 FEW030 BKN040 BKN/// 28/23 Q1006

時間: 16:21 (07:21 UTC)


TAF: 見つかりません

4,000以上の空港の気象観測と天気予報(METAR報とTAF報)

利用可能な観測所は地図上に黄色い丸と赤い丸で示す。

丸の上にカーソルを重ねると観測所名を参照できる。

次にクリックすると気象観測と天気予報を参照できる。

マップの切り替え:黒色「×」印の緑ボタンをクリックして拡大、「-」印の緑ボタンをクリックして縮小、緑色の三角印をクリックして隣りの地図に切り替え


METAR-TAF: